Главная страница
METAR-TAF:

METAR-TAF

Аэропорты :

Тронхейм, Норвегия

широта: 63-28N, долгота: 010-56E, высота над уровнем моря: 1 м

Текущие метеонаблюдения

Эта сводка был подготовлена 41 минут назад, в 22:20 UTC
Ветер 8 Узел от восточный, изменяющийся между северо-восточный и восточно-юго-восточный
Температура 14°C
Влажность 38%
Давление 1017 hPa
Видимость 10 км и более
Нет облачности ниже 1500 м, и нет кучево-дождевой облачности

METAR: ENVA 252220Z 08008KT 050V110 CAVOK 14/M00 Q1017 RMK WIND 670FT 14008KT

Время: 01:01 (23:01 UTC)

Прогноз

Прогноз действительный с 25-го 18 UTC до 26-го 18 UTC
Ветер 8 Узел от восточно-юго-восточный
Видимость 10 км и более
Нет облачности ниже 1500 м, и нет кучево-дождевой облачности
временами
С 25-го 18 UTC до 25-го 24 UTC
Ветер 18 Узел от юго-юго-восточный с порывами до 28 Узел

TAF: ENVA 2518/2618 12008KT CAVOK TEMPO 2518/2524 15018G28KT

Метеонаблюдения и прогнозы для более 4000 аэропортов (сводки METAR и TAF).

Имеющиеся станции представлены на карте желтыми и красными точками.

Чтобы увидеть название станции, наведите на нее мышь.

Затем щелкните, чтобы увидеть метеонаблюдения и метеопрогнозы.

Управление картой: чтобы увеличить масштаб, щелкните зеленые кнопки с черным крестиком; чтобы уменьшить масштаб, щелкните зеленую кнопку с тире; для просмотра соседних карт щелкайте зеленые стрелки.


METAR-TAF: